Time;durP1;ratioP1;P1;durP2;ratioP2;P2;SDS_P1;SDS_P2;PMS_P1;PMS_P2;Temp;Humidity;BMP_temperature;BMP_pressure;BME280_temperature;BME280_humidity;BME280_pressure;Samples;Min_cycle;Max_cycle;Signal;HPM_P1;HPM_P2
2020/12/19 00:00:12;;;;;;;10.02;3.03;;;23.20;80.40;;;;;;5115252;28;20020;-64
2020/12/19 00:02:41;;;;;;;11.32;3.10;;;23.10;80.40;;;;;;5115656;28;20023;-63
2020/12/19 00:05:08;;;;;;;9.30;2.97;;;23.10;80.40;;;;;;5114630;28;20026;-65
2020/12/19 00:07:36;;;;;;;12.52;3.53;;;23.20;80.40;;;;;;5114619;28;20161;-62
2020/12/19 00:10:04;;;;;;;10.95;3.10;;;23.20;80.30;;;;;;5114815;28;20550;-63
2020/12/19 00:12:32;;;;;;;10.70;3.78;;;23.10;80.20;;;;;;5115170;28;20081;-65
2020/12/19 00:14:59;;;;;;;11.05;2.60;;;23.20;80.20;;;;;;5096064;28;20063;-66
2020/12/19 00:17:26;;;;;;;8.68;2.90;;;23.20;80.40;;;;;;5095443;28;20020;-64
2020/12/19 00:19:54;;;;;;;7.57;2.70;;;23.20;80.30;;;;;;5114286;28;20027;-63
2020/12/19 00:22:21;;;;;;;8.13;3.15;;;23.20;80.30;;;;;;5114538;28;20055;-65
2020/12/19 00:24:50;;;;;;;7.65;3.28;;;23.20;80.20;;;;;;5114507;28;20027;-63
2020/12/19 00:27:17;;;;;;;9.93;3.50;;;23.20;80.20;;;;;;5114748;28;20030;-64
2020/12/19 00:29:45;;;;;;;9.80;3.00;;;23.10;80.80;;;;;;5113898;28;20035;-63
2020/12/19 00:32:12;;;;;;;7.35;2.72;;;23.20;80.20;;;;;;5114253;28;20027;-64
2020/12/19 00:34:40;;;;;;;10.85;3.30;;;23.20;80.00;;;;;;5114506;28;20062;-65
2020/12/19 00:37:07;;;;;;;8.77;2.95;;;23.20;80.00;;;;;;5114119;28;20028;-64
2020/12/19 00:39:34;;;;;;;11.35;3.10;;;23.20;80.00;;;;;;5114203;28;20028;-64
2020/12/19 00:42:02;;;;;;;7.82;2.83;;;23.20;79.80;;;;;;5114222;28;20050;-63
2020/12/19 00:44:29;;;;;;;6.47;2.60;;;23.20;79.70;;;;;;5113134;28;20121;-63
2020/12/19 00:46:56;;;;;;;8.90;4.07;;;23.20;79.70;;;;;;5113613;28;20027;-66
2020/12/19 00:49:24;;;;;;;10.00;2.78;;;23.20;79.70;;;;;;5113310;28;20028;-64
2020/12/19 00:51:51;;;;;;;8.30;3.03;;;23.20;79.50;;;;;;5113259;28;20016;-63
2020/12/19 00:54:18;;;;;;;7.57;2.92;;;23.20;79.50;;;;;;5095718;28;20069;-65
2020/12/19 00:56:45;;;;;;;8.18;2.45;;;23.20;79.50;;;;;;5095390;28;20055;-63
2020/12/19 00:59:13;;;;;;;7.93;3.22;;;23.20;79.50;;;;;;5113517;28;20103;-65
2020/12/19 01:01:40;;;;;;;7.72;2.40;;;23.30;79.50;;;;;;5113308;28;20351;-63
2020/12/19 01:04:08;;;;;;;9.90;3.58;;;23.30;79.40;;;;;;5113464;28;20035;-62
2020/12/19 01:06:36;;;;;;;10.35;3.22;;;23.30;79.40;;;;;;5112751;28;20381;-64
2020/12/19 01:09:05;;;;;;;8.65;3.20;;;23.30;79.40;;;;;;5113215;28;20020;-66
2020/12/19 01:11:35;;;;;;;9.10;2.90;;;23.30;79.40;;;;;;5113229;28;20106;-65
2020/12/19 01:14:03;;;;;;;4.97;2.58;;;23.30;79.40;;;;;;5113660;28;20064;-65
2020/12/19 01:16:30;;;;;;;7.57;3.03;;;23.30;79.30;;;;;;5113513;28;20071;-62
2020/12/19 01:19:04;;;;;;;7.60;2.83;;;23.30;79.40;;;;;;5113088;28;20063;-63
2020/12/19 01:21:32;;;;;;;6.97;2.75;;;23.30;79.40;;;;;;5113386;28;20052;-67
2020/12/19 01:24:00;;;;;;;7.40;3.15;;;23.30;79.30;;;;;;5113642;28;20097;-63
2020/12/19 01:26:27;;;;;;;8.35;2.88;;;23.30;79.50;;;;;;5113394;28;20043;-62
2020/12/19 01:28:54;;;;;;;7.78;2.90;;;23.30;79.40;;;;;;5113557;28;20020;-69
2020/12/19 01:31:23;;;;;;;6.50;2.33;;;23.30;79.40;;;;;;5113958;28;20209;-64
2020/12/19 01:33:51;;;;;;;5.28;2.33;;;23.30;79.50;;;;;;5113593;28;20020;-65
2020/12/19 01:36:21;;;;;;;9.07;3.08;;;23.30;79.40;;;;;;5113577;28;20478;-62
2020/12/19 01:38:51;;;;;;;9.30;3.00;;;23.30;79.50;;;;;;5107905;27;20039;-57
2020/12/19 01:41:22;;;;;;;9.68;2.92;;;23.20;80.00;;;;;;5111897;27;20030;-64
2020/12/19 01:43:55;;;;;;;6.88;2.20;;;23.20;80.00;;;;;;5109585;28;20023;-62
2020/12/19 01:46:43;;;;;;;5.10;2.47;;;23.20;80.00;;;;;;5114234;27;20103;-61
2020/12/19 01:49:10;;;;;;;8.77;3.00;;;23.30;79.90;;;;;;5109036;28;20080;-63
2020/12/19 01:51:38;;;;;;;8.93;3.20;;;23.30;79.70;;;;;;5110756;28;20485;-60
2020/12/19 01:54:09;;;;;;;9.85;3.70;;;23.30;79.60;;;;;;5106248;28;20037;-58
2020/12/19 01:56:46;;;;;;;8.52;2.60;;;23.30;79.60;;;;;;5111907;27;20023;-54
2020/12/19 01:59:13;;;;;;;8.40;2.63;;;23.30;79.40;;;;;;5109583;28;20023;-62
2020/12/19 02:01:46;;;;;;;5.60;2.70;;;23.30;79.50;;;;;;5111224;28;20038;-62
2020/12/19 02:04:14;;;;;;;8.48;2.67;;;23.30;79.40;;;;;;5086980;28;20096;-64
2020/12/19 02:06:45;;;;;;;8.20;3.38;;;23.30;79.40;;;;;;5111742;28;20030;-62
2020/12/19 02:09:15;;;;;;;7.40;2.67;;;23.40;79.40;;;;;;5110529;28;20082;-56
2020/12/19 02:11:46;;;;;;;6.22;2.58;;;23.40;79.30;;;;;;5110506;28;20043;-57
2020/12/19 02:14:14;;;;;;;8.40;2.55;;;23.40;79.30;;;;;;5106563;28;20024;-62
2020/12/19 02:17:04;;;;;;;6.72;2.33;;;23.40;79.40;;;;;;5111275;28;20031;-62
2020/12/19 02:19:32;;;;;;;11.50;3.50;;;23.40;79.20;;;;;;5106626;28;20122;-64
2020/12/19 02:22:00;;;;;;;11.65;3.38;;;23.40;79.20;;;;;;5106918;28;20058;-60
2020/12/19 02:24:28;;;;;;;10.85;3.88;;;23.40;79.10;;;;;;5112581;28;20024;-66
2020/12/19 02:26:57;;;;;;;9.05;2.95;;;23.40;79.10;;;;;;5112125;28;20028;-62
2020/12/19 02:29:27;;;;;;;8.35;3.30;;;23.40;79.10;;;;;;5111578;28;20020;-62
2020/12/19 02:31:56;;;;;;;9.48;2.63;;;23.40;79.10;;;;;;5111557;28;20020;-68
2020/12/19 02:34:24;;;;;;;9.50;3.10;;;23.30;79.00;;;;;;5111850;28;20108;-62
2020/12/19 02:36:51;;;;;;;6.63;3.13;;;23.30;79.10;;;;;;5111944;28;20035;-61
2020/12/19 02:39:19;;;;;;;6.05;2.58;;;23.30;79.10;;;;;;5112145;28;20094;-59
2020/12/19 02:41:48;;;;;;;8.90;2.55;;;23.30;79.10;;;;;;5111664;28;20019;-61
2020/12/19 02:44:18;;;;;;;7.45;3.00;;;23.30;79.10;;;;;;5111387;28;20031;-63
2020/12/19 02:46:46;;;;;;;8.02;3.00;;;23.30;79.10;;;;;;5111967;28;20024;-65
2020/12/19 02:49:14;;;;;;;4.43;2.15;;;23.30;79.20;;;;;;5110896;28;20533;-63
2020/12/19 02:51:41;;;;;;;6.07;3.13;;;23.30;79.30;;;;;;5111774;28;20111;-62
2020/12/19 02:54:09;;;;;;;8.57;3.10;;;23.30;79.30;;;;;;5110866;28;20107;-64
2020/12/19 02:56:36;;;;;;;7.20;2.58;;;23.30;79.20;;;;;;5111577;28;20486;-65
2020/12/19 02:59:03;;;;;;;8.13;2.60;;;23.20;79.30;;;;;;5111612;28;20513;-58
2020/12/19 03:01:31;;;;;;;7.45;2.75;;;23.20;79.30;;;;;;5111630;28;20038;-61
2020/12/19 03:04:00;;;;;;;7.32;2.58;;;23.20;79.40;;;;;;5111794;28;20046;-60
2020/12/19 03:06:27;;;;;;;9.45;3.40;;;23.20;79.40;;;;;;5113399;28;20469;-62
2020/12/19 03:08:55;;;;;;;8.98;3.00;;;23.20;79.60;;;;;;5097721;28;20381;-56
2020/12/19 03:11:22;;;;;;;45.80;33.45;;;23.10;79.60;;;;;;5110309;28;20055;-48
2020/12/19 03:13:50;;;;;;;29.60;26.25;;;23.00;80.30;;;;;;5113680;27;20027;-48
2020/12/19 03:16:17;;;;;;;28.48;23.98;;;23.00;80.40;;;;;;5113914;28;20115;-56
2020/12/19 03:18:44;;;;;;;25.17;19.42;;;22.90;80.30;;;;;;5115444;27;20134;-48
2020/12/19 03:21:12;;;;;;;57.35;50.97;;;22.90;80.40;;;;;;5114114;28;20019;-53
2020/12/19 03:23:39;;;;;;;43.47;31.15;;;22.80;80.50;;;;;;5108908;28;20093;-50
2020/12/19 03:26:06;;;;;;;25.98;18.40;;;22.80;80.60;;;;;;5113709;28;20120;-55
2020/12/19 03:28:34;;;;;;;19.38;9.95;;;22.90;80.70;;;;;;5113490;28;20047;-63
2020/12/19 03:31:01;;;;;;;34.42;26.48;;;22.90;80.80;;;;;;5117212;27;20073;-55
2020/12/19 03:33:29;;;;;;;26.17;18.00;;;22.90;81.00;;;;;;5108746;28;20038;-52
2020/12/19 03:35:56;;;;;;;26.65;17.70;;;22.90;81.30;;;;;;5114329;28;20040;-54
2020/12/19 03:38:23;;;;;;;29.95;21.73;;;22.80;81.40;;;;;;5113965;28;20027;-56
2020/12/19 03:40:50;;;;;;;46.42;40.28;;;22.80;81.50;;;;;;5114612;28;20059;-56
2020/12/19 03:43:18;;;;;;;28.65;23.42;;;22.80;81.40;;;;;;5108438;28;20072;-56
2020/12/19 03:45:45;;;;;;;41.28;30.23;;;22.80;81.60;;;;;;5114190;28;20028;-52
2020/12/19 03:48:12;;;;;;;24.15;17.70;;;22.80;81.70;;;;;;5113833;28;20020;-50
2020/12/19 03:50:40;;;;;;;27.00;18.90;;;22.80;82.00;;;;;;5113519;28;20488;-54
2020/12/19 03:53:07;;;;;;;32.80;23.13;;;22.80;82.30;;;;;;5108901;28;20055;-54
2020/12/19 03:55:34;;;;;;;28.55;18.77;;;22.70;82.40;;;;;;5114364;28;20046;-60
2020/12/19 03:58:02;;;;;;;27.35;15.45;;;22.70;82.40;;;;;;5114320;28;20111;-58
2020/12/19 04:00:30;;;;;;;27.75;19.70;;;22.70;83.20;;;;;;5107927;27;20187;-54
2020/12/19 04:02:57;;;;;;;16.73;9.07;;;22.70;83.00;;;;;;5114466;27;20122;-57
2020/12/19 04:05:25;;;;;;;14.80;6.35;;;22.60;83.70;;;;;;5113043;28;20023;-54
2020/12/19 04:07:52;;;;;;;15.68;5.85;;;22.60;83.60;;;;;;5113864;27;20038;-57
2020/12/19 04:10:19;;;;;;;14.20;5.43;;;22.70;83.80;;;;;;5110382;28;20053;-56
2020/12/19 04:12:47;;;;;;;15.90;6.00;;;22.70;85.20;;;;;;5112440;28;20046;-49
2020/12/19 04:15:14;;;;;;;13.02;5.65;;;22.70;85.10;;;;;;5113212;28;20166;-56
2020/12/19 04:17:41;;;;;;;18.45;5.95;;;22.80;84.10;;;;;;5112105;28;20481;-57
2020/12/19 04:20:10;;;;;;;14.00;4.72;;;22.90;84.70;;;;;;5112986;27;20416;-60
2020/12/19 04:22:37;;;;;;;12.43;3.97;;;22.90;84.50;;;;;;5111926;28;20100;-60
2020/12/19 04:25:05;;;;;;;12.07;4.15;;;22.80;85.20;;;;;;5113065;28;20051;-50
2020/12/19 04:27:32;;;;;;;14.35;4.45;;;22.80;85.30;;;;;;5113085;28;20016;-53
2020/12/19 04:30:00;;;;;;;13.05;4.20;;;22.80;85.00;;;;;;5108848;28;20138;-57
2020/12/19 04:32:27;;;;;;;15.13;4.05;;;22.80;85.40;;;;;;5111869;28;20034;-54
2020/12/19 04:34:55;;;;;;;12.02;4.10;;;22.80;86.10;;;;;;5112872;28;20031;-60
2020/12/19 04:37:23;;;;;;;10.85;3.60;;;22.80;86.00;;;;;;5094782;28;20020;-52
2020/12/19 04:39:51;;;;;;;16.45;5.38;;;22.80;85.30;;;;;;5105941;28;20453;-56
2020/12/19 04:42:20;;;;;;;12.80;4.45;;;22.70;85.80;;;;;;5114268;28;20031;-60
2020/12/19 04:44:48;;;;;;;17.08;8.90;;;22.80;86.70;;;;;;5113711;28;20055;-61
2020/12/19 04:47:15;;;;;;;20.85;10.38;;;22.90;86.00;;;;;;5114027;28;20043;-58
2020/12/19 04:49:47;;;;;;;17.95;8.23;;;22.90;85.90;;;;;;5095673;28;20032;-58
2020/12/19 04:52:17;;;;;;;15.45;6.85;;;22.90;86.90;;;;;;5093391;28;20043;-59
2020/12/19 04:54:45;;;;;;;33.92;22.48;;;22.90;86.00;;;;;;5093552;28;20177;-59
2020/12/19 04:57:22;;;;;;;19.13;8.93;;;22.90;86.20;;;;;;5093348;28;20032;-59
2020/12/19 04:59:50;;;;;;;15.73;8.68;;;23.00;86.90;;;;;;5093406;28;20020;-60
2020/12/19 05:02:18;;;;;;;16.58;7.47;;;23.00;86.60;;;;;;5075231;28;20031;-62
2020/12/19 05:04:45;;;;;;;22.95;12.82;;;23.00;85.90;;;;;;5092980;28;20043;-61
2020/12/19 05:07:14;;;;;;;14.40;6.00;;;22.90;85.60;;;;;;5092522;28;20031;-61
2020/12/19 05:09:44;;;;;;;13.48;5.95;;;23.00;85.50;;;;;;5090408;28;20036;-59
2020/12/19 05:12:13;;;;;;;23.92;16.95;;;23.00;85.00;;;;;;5092491;28;20061;-57
2020/12/19 05:14:41;;;;;;;28.42;15.63;;;23.00;84.50;;;;;;5092602;28;20040;-60
2020/12/19 05:17:08;;;;;;;22.38;13.88;;;23.10;84.10;;;;;;5092740;28;20024;-60
2020/12/19 05:19:36;;;;;;;20.35;7.03;;;23.10;83.80;;;;;;5092275;28;20145;-60
2020/12/19 05:22:04;;;;;;;15.07;8.05;;;23.00;83.50;;;;;;5092761;28;20161;-59
2020/12/19 05:24:37;;;;;;;22.38;12.50;;;23.00;83.50;;;;;;5093006;28;20017;-61
2020/12/19 05:27:06;;;;;;;30.13;21.20;;;23.00;83.30;;;;;;5093046;28;20043;-62
2020/12/19 05:29:33;;;;;;;26.23;13.65;;;23.00;83.20;;;;;;5092252;28;20351;-58
2020/12/19 05:32:01;;;;;;;29.27;12.50;;;23.00;82.80;;;;;;5092735;28;20023;-54
2020/12/19 05:34:29;;;;;;;29.00;11.18;;;23.00;82.90;;;;;;5092050;28;20071;-60
2020/12/19 05:36:57;;;;;;;12.88;6.07;;;23.00;82.90;;;;;;5092440;28;20036;-58
2020/12/19 05:39:25;;;;;;;22.23;9.32;;;23.10;82.60;;;;;;5092358;28;20126;-55
2020/12/19 05:41:53;;;;;;;14.20;5.18;;;23.10;82.50;;;;;;5092788;28;20035;-58
2020/12/19 05:44:22;;;;;;;29.73;15.43;;;23.20;82.50;;;;;;5092556;28;20081;-60
2020/12/19 05:46:50;;;;;;;16.55;7.72;;;23.20;82.40;;;;;;5092210;28;20020;-58
2020/12/19 05:49:18;;;;;;;19.80;7.25;;;23.20;82.30;;;;;;5092009;28;20043;-60
2020/12/19 05:51:46;;;;;;;67.55;50.78;;;23.20;82.50;;;;;;5086170;28;20020;-57
2020/12/19 05:54:16;;;;;;;38.75;26.02;;;23.20;82.30;;;;;;5112528;28;20024;-56
2020/12/19 05:56:50;;;;;;;37.38;22.77;;;23.20;83.00;;;;;;5112694;28;20046;-58
2020/12/19 05:59:19;;;;;;;42.03;29.73;;;23.20;82.50;;;;;;5112437;28;20035;-58
2020/12/19 06:01:49;;;;;;;37.90;25.42;;;23.10;82.40;;;;;;5112043;28;20035;-57
2020/12/19 06:04:17;;;;;;;16.92;7.95;;;23.10;82.40;;;;;;5112395;28;20031;-60
2020/12/19 06:06:47;;;;;;;18.63;11.50;;;23.20;82.60;;;;;;5112388;28;20149;-59
2020/12/19 06:09:15;;;;;;;22.10;12.90;;;23.20;82.60;;;;;;5112485;28;20019;-59
2020/12/19 06:12:19;;;;;;;15.35;8.93;;;23.10;82.50;;;;;;5112140;28;20039;-59
2020/12/19 06:14:52;;;;;;;18.48;10.98;;;23.10;82.90;;;;;;5039527;28;20414;-59
2020/12/19 06:17:46;;;;;;;34.05;23.20;;;23.10;82.90;;;;;;5112204;28;20046;-60
2020/12/19 06:20:16;;;;;;;15.90;6.60;;;23.00;82.60;;;;;;5112022;28;20490;-63
2020/12/19 06:22:44;;;;;;;21.45;8.13;;;23.00;83.00;;;;;;5112304;28;20377;-61
2020/12/19 06:25:11;;;;;;;19.65;7.88;;;23.00;83.40;;;;;;5112175;28;20027;-60
2020/12/19 06:27:40;;;;;;;22.05;10.30;;;23.00;83.00;;;;;;5111987;28;20028;-56
2020/12/19 06:30:09;;;;;;;24.30;7.78;;;22.90;83.80;;;;;;5112327;28;20015;-59
2020/12/19 06:32:36;;;;;;;20.60;7.38;;;22.90;83.80;;;;;;5111816;28;20454;-60
2020/12/19 06:35:11;;;;;;;20.75;7.78;;;22.90;83.90;;;;;;5112144;28;20028;-58
2020/12/19 06:37:42;;;;;;;27.67;10.57;;;22.90;84.10;;;;;;5111924;28;20028;-59
2020/12/19 06:40:18;;;;;;;25.83;10.43;;;22.90;83.70;;;;;;5112783;28;20540;-56
2020/12/19 06:42:47;;;;;;;17.92;7.20;;;22.90;84.30;;;;;;5119068;28;20020;-60
2020/12/19 06:45:29;;;;;;;20.40;12.25;;;22.90;84.90;;;;;;5118813;28;20496;-60
2020/12/19 06:47:57;;;;;;;28.73;8.23;;;22.90;84.40;;;;;;5118800;28;20117;-58
2020/12/19 06:50:45;;;;;;;20.42;13.63;;;22.90;84.00;;;;;;5118881;28;20032;-61
2020/12/19 06:53:16;;;;;;;13.63;7.10;;;22.90;84.00;;;;;;5118541;28;20133;-60
2020/12/19 06:55:43;;;;;;;16.73;7.50;;;22.90;84.00;;;;;;5118227;28;20043;-59
2020/12/19 06:58:11;;;;;;;15.75;6.32;;;22.90;83.90;;;;;;5118600;28;20065;-60
2020/12/19 07:00:38;;;;;;;22.08;5.90;;;22.90;83.70;;;;;;5118731;28;20430;-60
2020/12/19 07:03:05;;;;;;;22.10;6.35;;;22.90;84.00;;;;;;5107935;27;20150;-53
2020/12/19 07:05:35;;;;;;;12.63;5.07;;;22.90;84.20;;;;;;5117725;27;20040;-59
2020/12/19 07:08:22;;;;;;;15.45;4.88;;;22.90;84.20;;;;;;5117385;28;20028;-56
2020/12/19 07:10:51;;;;;;;12.73;4.70;;;22.90;85.00;;;;;;5117739;27;20433;-59
2020/12/19 07:13:19;;;;;;;17.02;3.90;;;22.80;83.90;;;;;;5112395;28;20444;-59
2020/12/19 07:15:47;;;;;;;13.38;4.68;;;22.80;84.10;;;;;;5116988;28;20161;-58
2020/12/19 07:18:34;;;;;;;16.05;4.20;;;22.80;84.00;;;;;;5117330;28;20092;-57
2020/12/19 07:21:10;;;;;;;18.13;4.18;;;22.70;84.30;;;;;;5097625;28;20066;-57
2020/12/19 07:23:40;;;;;;;11.07;3.67;;;22.60;84.30;;;;;;5111635;28;20031;-51
2020/12/19 07:26:07;;;;;;;11.95;4.10;;;22.60;84.40;;;;;;5117426;28;20023;-54
2020/12/19 07:28:37;;;;;;;15.77;3.35;;;22.60;84.20;;;;;;5117267;28;20059;-50
2020/12/19 07:31:05;;;;;;;15.77;4.25;;;22.60;84.40;;;;;;5117308;28;20398;-51
2020/12/19 07:33:32;;;;;;;14.32;4.18;;;22.60;84.50;;;;;;5111707;28;20040;-60
2020/12/19 07:36:01;;;;;;;14.68;3.65;;;22.60;84.10;;;;;;5117062;28;20032;-58
2020/12/19 07:38:28;;;;;;;16.73;4.53;;;22.60;84.20;;;;;;5117823;28;20027;-57
2020/12/19 07:40:56;;;;;;;15.65;4.40;;;22.60;84.10;;;;;;5116461;28;20028;-53
2020/12/19 07:43:24;;;;;;;13.07;2.97;;;22.60;84.10;;;;;;5109607;28;20110;-60
2020/12/19 07:45:59;;;;;;;11.00;3.65;;;22.60;84.00;;;;;;5115783;28;20101;-58
2020/12/19 07:48:26;;;;;;;9.57;3.35;;;22.70;83.90;;;;;;5112010;28;20535;-58
2020/12/19 07:50:54;;;;;;;14.07;3.33;;;22.70;83.80;;;;;;5115289;28;20016;-59
2020/12/19 07:53:21;;;;;;;12.48;4.00;;;22.70;83.70;;;;;;5107325;28;20040;-59
2020/12/19 07:55:52;;;;;;;13.52;3.47;;;22.70;83.60;;;;;;5112424;28;20031;-59
2020/12/19 07:58:20;;;;;;;13.27;3.65;;;22.70;83.60;;;;;;5117131;27;20049;-60
2020/12/19 08:00:48;;;;;;;9.80;3.47;;;22.70;83.60;;;;;;5114271;28;20051;-58
2020/12/19 08:03:15;;;;;;;11.98;3.88;;;22.70;83.60;;;;;;5108909;28;20024;-61
2020/12/19 08:05:42;;;;;;;12.55;3.42;;;22.70;83.80;;;;;;5113735;28;20027;-60
2020/12/19 08:08:12;;;;;;;10.98;3.58;;;22.70;83.80;;;;;;5113709;28;20023;-64
2020/12/19 08:10:39;;;;;;;12.02;3.53;;;22.70;83.80;;;;;;5114322;28;20023;-62
2020/12/19 08:13:26;;;;;;;11.35;3.67;;;22.80;83.60;;;;;;5108722;28;20027;-60
2020/12/19 08:15:56;;;;;;;8.45;2.90;;;22.80;83.50;;;;;;5114089;28;20058;-61
2020/12/19 08:18:24;;;;;;;15.30;3.75;;;22.80;83.50;;;;;;5113303;28;20047;-62
2020/12/19 08:20:52;;;;;;;12.77;3.13;;;22.80;83.40;;;;;;5114025;28;20351;-61
2020/12/19 08:23:21;;;;;;;11.18;3.17;;;22.80;83.40;;;;;;5108318;28;20107;-63
2020/12/19 08:25:52;;;;;;;11.85;3.05;;;22.80;83.40;;;;;;5113136;28;20470;-65
2020/12/19 08:28:24;;;;;;;9.73;2.78;;;22.80;83.40;;;;;;5113357;28;20047;-63
2020/12/19 08:30:51;;;;;;;12.32;3.10;;;22.80;83.30;;;;;;5113586;28;20158;-63
2020/12/19 08:33:20;;;;;;;8.60;3.03;;;22.80;83.40;;;;;;5108940;28;20108;-61
2020/12/19 08:35:48;;;;;;;10.23;3.25;;;22.80;83.30;;;;;;5112907;28;20043;-63
2020/12/19 08:38:21;;;;;;;8.60;3.22;;;22.90;83.40;;;;;;5113102;28;20024;-62
2020/12/19 08:40:50;;;;;;;10.80;3.40;;;22.90;83.30;;;;;;5113419;28;20054;-63
2020/12/19 08:43:19;;;;;;;11.60;3.45;;;22.80;83.30;;;;;;5108461;28;20036;-53
2020/12/19 08:45:47;;;;;;;13.90;3.45;;;22.90;83.40;;;;;;5112026;28;20051;-60
2020/12/19 08:48:24;;;;;;;10.13;3.45;;;22.90;83.40;;;;;;5112854;28;20081;-63
2020/12/19 08:50:54;;;;;;;10.10;2.97;;;22.90;83.40;;;;;;5113230;28;20023;-63
2020/12/19 08:53:26;;;;;;;10.50;3.05;;;22.90;83.40;;;;;;5108662;28;20032;-62
2020/12/19 08:55:55;;;;;;;9.85;3.63;;;22.90;83.40;;;;;;5112586;28;20023;-59
2020/12/19 08:58:26;;;;;;;8.60;3.10;;;22.90;83.40;;;;;;5114088;27;20024;-62
2020/12/19 09:01:11;;;;;;;10.18;3.50;;;22.90;83.30;;;;;;5112903;28;20024;-62
2020/12/19 09:03:38;;;;;;;8.90;3.05;;;22.90;83.40;;;;;;5106599;28;20031;-60
2020/12/19 09:06:10;;;;;;;9.38;2.97;;;22.90;83.30;;;;;;5112627;28;20382;-60
2020/12/19 09:08:42;;;;;;;9.48;2.97;;;22.90;83.30;;;;;;5112421;28;20071;-62
2020/12/19 09:11:21;;;;;;;;;;;22.90;83.20;;;;;;5112999;28;20069;-57
2020/12/19 09:13:49;;;;;;;10.48;3.33;;;22.90;83.20;;;;;;5103299;28;19903;-59
2020/12/19 09:16:16;;;;;;;11.52;3.67;;;22.80;83.60;;;;;;5112376;28;20096;-60
2020/12/19 09:18:45;;;;;;;8.05;2.80;;;22.80;83.60;;;;;;5111989;28;20126;-59
2020/12/19 09:21:15;;;;;;;7.85;2.75;;;22.80;83.50;;;;;;5112000;28;20080;-59
2020/12/19 09:23:42;;;;;;;10.80;3.15;;;22.80;83.40;;;;;;5107139;28;20097;-59
2020/12/19 09:26:10;;;;;;;8.82;3.00;;;22.80;83.40;;;;;;5094375;28;20526;-56
2020/12/19 09:28:37;;;;;;;8.48;3.17;;;22.80;83.40;;;;;;5093702;28;20027;-60
2020/12/19 09:31:04;;;;;;;8.40;2.80;;;22.80;83.60;;;;;;5093899;28;20026;-59
2020/12/19 09:33:32;;;;;;;7.05;2.80;;;22.80;83.50;;;;;;5107125;28;20408;-61
2020/12/19 09:35:59;;;;;;;14.15;3.15;;;22.80;83.40;;;;;;5111725;28;20035;-65
2020/12/19 09:38:26;;;;;;;9.70;2.53;;;22.80;83.30;;;;;;5107767;28;20377;-63
2020/12/19 09:40:54;;;;;;;9.30;3.50;;;22.80;83.30;;;;;;5111812;28;20027;-63
2020/12/19 09:43:22;;;;;;;11.07;2.78;;;22.90;83.30;;;;;;5108007;28;20027;-67
2020/12/19 09:45:50;;;;;;;8.63;3.03;;;22.90;83.30;;;;;;5111819;28;20023;-62
2020/12/19 09:48:17;;;;;;;11.25;3.13;;;22.80;83.30;;;;;;5112214;28;20043;-66
2020/12/19 09:50:44;;;;;;;9.10;2.60;;;22.80;83.30;;;;;;5093707;28;20051;-62
2020/12/19 09:53:12;;;;;;;8.75;3.08;;;22.80;83.30;;;;;;5107626;28;20454;-65
2020/12/19 09:55:39;;;;;;;10.20;2.90;;;22.80;83.30;;;;;;5110105;28;20504;-56
2020/12/19 09:58:06;;;;;;;7.05;2.50;;;22.80;83.30;;;;;;5112097;27;20041;-60
2020/12/19 10:00:34;;;;;;;7.35;3.13;;;22.80;83.40;;;;;;5107532;28;20063;-62
2020/12/19 10:03:01;;;;;;;6.70;2.50;;;22.80;83.30;;;;;;5107855;28;20020;-63
2020/12/19 10:05:28;;;;;;;10.55;3.08;;;22.80;83.20;;;;;;5110582;28;20035;-64
2020/12/19 10:07:57;;;;;;;5.65;2.40;;;22.90;83.10;;;;;;5112079;28;20044;-63
2020/12/19 10:10:24;;;;;;;8.48;2.75;;;22.90;83.10;;;;;;5093072;28;20430;-56
2020/12/19 10:12:52;;;;;;;7.70;3.15;;;22.90;83.10;;;;;;5108699;28;20527;-55
2020/12/19 10:15:19;;;;;;;8.13;3.50;;;22.90;83.10;;;;;;5108058;28;20088;-62
2020/12/19 10:17:46;;;;;;;6.47;2.78;;;22.90;83.10;;;;;;5111279;28;20096;-61
2020/12/19 10:20:14;;;;;;;10.13;3.10;;;22.90;83.00;;;;;;5111480;28;20035;-61
2020/12/19 10:22:41;;;;;;;6.80;3.20;;;22.90;83.00;;;;;;5111650;28;20031;-61
2020/12/19 10:25:09;;;;;;;9.15;3.20;;;22.90;83.00;;;;;;5087675;28;20089;-65
2020/12/19 10:27:36;;;;;;;9.10;2.88;;;22.90;82.90;;;;;;5111430;28;20107;-62
2020/12/19 10:30:04;;;;;;;9.13;3.05;;;22.90;82.90;;;;;;5110922;28;20031;-58
2020/12/19 10:32:31;;;;;;;7.35;2.70;;;22.90;82.90;;;;;;5111506;28;20157;-61
2020/12/19 10:35:03;;;;;;;7.15;3.13;;;22.90;82.90;;;;;;5105421;28;20024;-58
2020/12/19 10:37:30;;;;;;;7.10;2.97;;;22.90;82.80;;;;;;5111357;28;20019;-58
2020/12/19 10:39:59;;;;;;;7.22;2.40;;;22.90;82.90;;;;;;5111038;28;20543;-58
2020/12/19 10:42:27;;;;;;;8.52;2.58;;;22.90;82.90;;;;;;5111194;28;20032;-57
2020/12/19 10:44:54;;;;;;;12.77;3.05;;;22.90;82.90;;;;;;5102925;28;20023;-55
2020/12/19 10:47:23;;;;;;;10.32;3.13;;;22.90;83.00;;;;;;5110897;28;20024;-62
2020/12/19 10:49:51;;;;;;;9.50;3.42;;;22.90;83.20;;;;;;5111925;28;20081;-64
2020/12/19 10:52:19;;;;;;;10.48;2.90;;;22.90;83.30;;;;;;5112314;28;20088;-62
2020/12/19 10:54:46;;;;;;;11.13;2.60;;;22.90;83.10;;;;;;5112320;28;20089;-64
2020/12/19 10:57:14;;;;;;;5.63;2.42;;;22.90;83.00;;;;;;5112324;28;20035;-65
2020/12/19 10:59:44;;;;;;;5.30;2.15;;;22.90;82.90;;;;;;5111469;28;20389;-62
2020/12/19 11:02:11;;;;;;;9.35;3.10;;;22.90;82.90;;;;;;5111940;28;20035;-62
2020/12/19 11:04:39;;;;;;;7.57;2.90;;;22.90;83.10;;;;;;5110622;28;20039;-62
2020/12/19 11:07:06;;;;;;;10.32;3.67;;;22.80;83.10;;;;;;5110633;28;20166;-64
2020/12/19 11:09:33;;;;;;;4.82;2.30;;;22.80;83.10;;;;;;5110477;28;20024;-61
2020/12/19 11:12:01;;;;;;;7.90;2.58;;;22.80;83.10;;;;;;5111637;28;20478;-63
2020/12/19 11:14:29;;;;;;;6.25;2.65;;;22.80;83.20;;;;;;5111567;28;20030;-63
2020/12/19 11:16:59;;;;;;;15.57;2.95;;;22.80;83.20;;;;;;5112192;28;20119;-62
2020/12/19 11:19:26;;;;;;;5.05;2.65;;;22.80;83.20;;;;;;5111916;28;20054;-64
2020/12/19 11:21:54;;;;;;;10.68;2.33;;;22.70;83.20;;;;;;5112275;28;20390;-64
2020/12/19 11:24:22;;;;;;;9.13;2.78;;;22.70;83.20;;;;;;5112410;28;20521;-64
2020/12/19 11:26:50;;;;;;;7.75;2.55;;;22.80;83.30;;;;;;5113114;28;20032;-64
2020/12/19 11:29:17;;;;;;;6.30;2.88;;;22.70;83.30;;;;;;5116111;28;20024;-55
2020/12/19 11:31:44;;;;;;;6.30;2.80;;;22.70;83.40;;;;;;5116209;28;20027;-62
2020/12/19 11:34:12;;;;;;;8.13;3.03;;;22.70;83.30;;;;;;5116838;28;20020;-61
2020/12/19 11:36:40;;;;;;;6.15;2.28;;;22.70;83.30;;;;;;5116750;28;20028;-61
2020/12/19 11:39:11;;;;;;;5.10;2.22;;;22.60;83.30;;;;;;5116642;28;20023;-64
2020/12/19 11:41:39;;;;;;;6.25;2.55;;;22.60;83.40;;;;;;5115781;28;20024;-66
2020/12/19 11:44:08;;;;;;;8.73;2.70;;;22.60;83.40;;;;;;5116508;28;20059;-64
2020/12/19 11:46:35;;;;;;;7.20;2.50;;;22.60;83.40;;;;;;5116287;28;20411;-65
2020/12/19 11:49:03;;;;;;;7.53;2.53;;;22.60;83.50;;;;;;5115722;28;20489;-65
2020/12/19 11:51:32;;;;;;;6.85;2.55;;;22.60;83.50;;;;;;5115633;28;20028;-65
2020/12/19 11:54:01;;;;;;;5.07;2.13;;;22.60;83.50;;;;;;5115944;28;20516;-61
2020/12/19 11:56:30;;;;;;;5.65;2.72;;;22.60;83.30;;;;;;5115591;28;20092;-61
2020/12/19 11:58:58;;;;;;;8.40;2.92;;;22.50;83.60;;;;;;5115413;28;20084;-63
2020/12/19 12:01:29;;;;;;;9.13;2.70;;;22.60;83.60;;;;;;5115557;28;20034;-63
2020/12/19 12:03:58;;;;;;;6.35;2.50;;;22.50;83.60;;;;;;5115270;28;20027;-63
2020/12/19 12:06:32;;;;;;;5.40;2.25;;;22.50;83.60;;;;;;5115408;28;20031;-65
2020/12/19 12:09:01;;;;;;;8.60;2.55;;;22.50;83.60;;;;;;5115263;28;20034;-63
2020/12/19 12:11:30;;;;;;;5.57;2.00;;;22.50;83.60;;;;;;5115438;28;20020;-62
2020/12/19 12:13:59;;;;;;;6.22;2.10;;;22.50;83.70;;;;;;5115531;28;20031;-62
2020/12/19 12:16:27;;;;;;;7.22;2.70;;;22.50;83.70;;;;;;5115379;28;20035;-67
2020/12/19 12:18:56;;;;;;;5.75;2.17;;;22.50;83.70;;;;;;5115044;28;20048;-63
2020/12/19 12:21:23;;;;;;;6.88;2.55;;;22.50;83.70;;;;;;5115124;28;20390;-64
2020/12/19 12:23:51;;;;;;;8.13;2.60;;;22.50;83.70;;;;;;5115271;28;20016;-63
2020/12/19 12:26:27;;;;;;;6.03;2.38;;;22.50;83.70;;;;;;5115042;28;20493;-63
2020/12/19 12:28:55;;;;;;;6.10;2.58;;;22.50;83.70;;;;;;5115214;28;20027;-60
2020/12/19 12:31:27;;;;;;;6.93;2.40;;;22.50;83.80;;;;;;5115096;28;20051;-65
2020/12/19 12:33:55;;;;;;;6.80;3.03;;;22.50;83.70;;;;;;5114858;28;20051;-61
2020/12/19 12:36:24;;;;;;;4.57;2.30;;;22.50;83.70;;;;;;5114459;28;20040;-61
2020/12/19 12:38:51;;;;;;;7.30;2.28;;;22.50;83.70;;;;;;5114034;28;20015;-64
2020/12/19 12:41:19;;;;;;;6.30;2.60;;;22.40;83.70;;;;;;5107602;27;20106;-61
2020/12/19 12:43:47;;;;;;;5.78;2.10;;;22.40;83.70;;;;;;5113011;28;20018;-61
2020/12/19 12:46:15;;;;;;;7.25;2.60;;;22.50;83.80;;;;;;5111826;28;20541;-62
2020/12/19 12:48:43;;;;;;;6.45;2.25;;;22.40;83.70;;;;;;5114209;28;20032;-61